createdAt,value
2023-05-22T00:01:08.779Z,14.53
2023-05-22T00:03:37.818Z,14.47
2023-05-22T00:06:10.208Z,13.27
2023-05-22T00:08:38.419Z,13.53
2023-05-22T00:11:07.408Z,13.30
2023-05-22T00:13:37.316Z,13.43
2023-05-22T00:16:11.687Z,14.47
2023-05-22T00:18:42.723Z,14.80
2023-05-22T00:21:10.860Z,13.63
2023-05-22T00:23:41.229Z,13.47
2023-05-22T00:26:09.108Z,14.07
2023-05-22T00:28:37.315Z,14.13
2023-05-22T00:31:07.873Z,13.13
2023-05-22T00:33:41.617Z,12.53
2023-05-22T00:36:12.149Z,11.67
2023-05-22T00:38:44.142Z,11.70
2023-05-22T00:41:12.090Z,12.20
2023-05-22T00:43:42.099Z,13.37
2023-05-22T00:46:12.877Z,12.83
2023-05-22T00:48:44.460Z,12.40
2023-05-22T00:51:15.440Z,12.63
2023-05-22T00:53:56.207Z,12.67
2023-05-22T00:56:24.569Z,12.70
2023-05-22T01:01:42.168Z,12.43
2023-05-22T01:04:13.457Z,12.30
2023-05-22T01:06:47.644Z,14.37
2023-05-22T01:09:25.372Z,12.80
2023-05-22T01:12:03.155Z,14.13
2023-05-22T01:14:41.871Z,12.13
2023-05-22T01:17:24.584Z,12.53
2023-05-22T01:20:07.282Z,12.43
2023-05-22T01:23:03.069Z,13.00
2023-05-22T01:25:55.311Z,12.57
2023-05-22T01:28:45.976Z,13.17
2023-05-22T01:31:19.472Z,12.63
2023-05-22T01:33:50.416Z,12.93
2023-05-22T01:36:23.991Z,13.30
2023-05-22T01:38:56.432Z,13.23
2023-05-22T01:41:25.882Z,12.47
2023-05-22T01:43:58.742Z,13.13
2023-05-22T01:46:37.184Z,13.27
2023-05-22T01:49:06.588Z,13.20
2023-05-22T01:51:46.561Z,13.30
2023-05-22T01:54:27.462Z,14.03
2023-05-22T01:57:07.308Z,13.53
2023-05-22T01:59:48.564Z,13.30
2023-05-22T02:02:23.160Z,13.33
2023-05-22T02:05:00.087Z,14.00
2023-05-22T02:07:34.708Z,14.03
2023-05-22T02:10:08.257Z,13.63
2023-05-22T02:12:37.888Z,13.70
2023-05-22T02:15:10.594Z,13.80
2023-05-22T02:17:41.478Z,14.10
2023-05-22T02:20:15.475Z,13.90
2023-05-22T02:22:44.925Z,13.07
2023-05-22T02:25:15.149Z,14.07
2023-05-22T02:27:45.757Z,14.57
2023-05-22T02:30:19.702Z,13.93
2023-05-22T02:32:53.765Z,13.90
2023-05-22T02:35:22.761Z,14.63
2023-05-22T02:37:50.807Z,14.43
2023-05-22T02:40:19.084Z,13.83
2023-05-22T02:42:49.278Z,14.43
2023-05-22T02:45:18.247Z,14.03
2023-05-22T02:47:46.825Z,13.40
2023-05-22T02:50:17.693Z,14.03
2023-05-22T02:52:46.539Z,14.10
2023-05-22T02:55:16.093Z,13.90
2023-05-22T02:57:46.759Z,14.83
2023-05-22T03:00:15.269Z,14.10
2023-05-22T03:02:44.962Z,14.67
2023-05-22T03:05:18.266Z,14.20
2023-05-22T03:07:48.994Z,14.47
2023-05-22T03:10:17.656Z,14.70
2023-05-22T03:12:48.324Z,14.30
2023-05-22T03:15:20.840Z,14.83
2023-05-22T03:17:48.732Z,14.40
2023-05-22T03:20:17.111Z,14.30
2023-05-22T03:22:45.345Z,14.77
2023-05-22T03:25:15.524Z,14.13
2023-05-22T03:27:43.375Z,14.60
2023-05-22T03:30:12.467Z,14.93
2023-05-22T03:32:40.996Z,14.93
2023-05-22T03:35:15.773Z,13.77
2023-05-22T03:37:43.580Z,13.83
2023-05-22T03:40:12.429Z,14.27
2023-05-22T03:42:42.432Z,15.23
2023-05-22T03:45:12.595Z,15.00
2023-05-22T03:47:43.890Z,14.60
2023-05-22T03:50:12.209Z,14.70
2023-05-22T03:52:41.934Z,14.97
2023-05-22T03:55:12.159Z,14.50
2023-05-22T03:57:41.598Z,15.40
2023-05-22T04:00:15.140Z,14.77
2023-05-22T04:02:46.938Z,15.17
2023-05-22T04:05:15.416Z,14.57
2023-05-22T04:07:48.316Z,14.63
2023-05-22T04:10:16.935Z,14.47
2023-05-22T04:12:47.521Z,14.87
2023-05-22T04:15:16.009Z,14.93
2023-05-22T04:17:44.421Z,14.87
2023-05-22T04:20:13.141Z,14.83
2023-05-22T04:22:41.598Z,15.50
2023-05-22T04:25:11.520Z,15.53
2023-05-22T04:27:40.730Z,15.40
2023-05-22T04:30:11.446Z,18.13
2023-05-22T04:32:39.694Z,15.17
2023-05-22T04:35:10.360Z,14.93
2023-05-22T04:37:40.806Z,14.47
2023-05-22T04:40:10.140Z,15.13
2023-05-22T04:42:39.219Z,15.97
2023-05-22T04:45:08.895Z,14.30
2023-05-22T04:47:41.728Z,13.63
2023-05-22T04:50:10.668Z,13.60
2023-05-22T04:52:41.970Z,14.27
2023-05-22T04:55:12.180Z,13.83
2023-05-22T04:57:40.998Z,13.20
2023-05-22T05:00:10.242Z,13.57
2023-05-22T05:02:40.240Z,14.50
2023-05-22T05:05:08.932Z,13.80
2023-05-22T05:07:38.824Z,13.60
2023-05-22T05:10:09.076Z,13.83
2023-05-22T05:12:39.103Z,14.60
2023-05-22T05:15:10.477Z,13.70
2023-05-22T05:17:40.259Z,13.50
2023-05-22T05:20:11.497Z,13.93
2023-05-22T05:22:40.476Z,13.17
2023-05-22T05:25:11.651Z,13.50
2023-05-22T05:27:40.090Z,13.50
2023-05-22T05:30:10.772Z,13.03
2023-05-22T05:32:42.092Z,12.77
2023-05-22T05:35:10.881Z,13.07
2023-05-22T05:37:42.031Z,12.43
2023-05-22T05:40:10.960Z,12.07
2023-05-22T05:42:41.163Z,11.80
2023-05-22T05:45:11.522Z,11.67
2023-05-22T05:47:41.447Z,11.70
2023-05-22T05:50:11.467Z,12.00
2023-05-22T05:52:39.782Z,11.73
2023-05-22T05:55:07.954Z,12.07
2023-05-22T05:57:38.667Z,11.53
2023-05-22T06:00:10.636Z,11.73
2023-05-22T06:02:41.012Z,10.93
2023-05-22T06:05:10.663Z,12.00
2023-05-22T06:07:40.593Z,11.30
2023-05-22T06:10:16.842Z,11.20
2023-05-22T06:12:44.925Z,10.43
2023-05-22T06:15:17.634Z,10.10
2023-05-22T06:17:47.470Z,10.70
2023-05-22T06:20:16.022Z,10.70
2023-05-22T06:22:44.180Z,10.00
2023-05-22T06:25:13.909Z,10.10
2023-05-22T06:27:42.817Z,9.63
2023-05-22T06:30:12.486Z,9.90
2023-05-22T06:32:58.240Z,10.23
2023-05-22T06:35:26.485Z,10.63
2023-05-22T06:37:58.986Z,9.60
2023-05-22T06:40:29.344Z,10.13
2023-05-22T06:42:59.989Z,10.17
2023-05-22T06:45:28.552Z,9.87
2023-05-22T06:47:59.174Z,16.93
2023-05-22T06:50:27.302Z,10.73
2023-05-22T06:53:01.447Z,9.93
2023-05-22T06:55:29.302Z,9.57
2023-05-22T06:57:57.108Z,9.37
2023-05-22T07:00:26.141Z,8.77
2023-05-22T07:02:54.496Z,9.50
2023-05-22T07:05:24.497Z,9.30
2023-05-22T07:07:52.578Z,9.43
2023-05-22T07:10:21.685Z,9.60
2023-05-22T07:12:49.936Z,10.00
2023-05-22T07:15:18.677Z,10.20
2023-05-22T07:17:49.226Z,9.77
2023-05-22T07:20:18.786Z,10.40
2023-05-22T07:22:49.804Z,9.70
2023-05-22T07:25:18.450Z,9.17
2023-05-22T07:27:48.289Z,9.43
2023-05-22T07:30:19.866Z,9.50
2023-05-22T07:32:49.727Z,9.57
2023-05-22T07:35:18.867Z,9.57
2023-05-22T07:37:53.259Z,9.57
2023-05-22T07:40:21.655Z,9.67
2023-05-22T07:42:50.075Z,9.40
2023-05-22T07:45:17.969Z,10.43
2023-05-22T07:47:47.263Z,11.07
2023-05-22T07:50:15.158Z,9.60
2023-05-22T07:52:44.313Z,10.07
2023-05-22T07:55:15.673Z,9.77
2023-05-22T07:57:44.340Z,10.23
2023-05-22T08:00:15.830Z,10.07
2023-05-22T08:02:45.737Z,10.30
2023-05-22T08:05:15.471Z,10.23
2023-05-22T08:07:44.682Z,10.65
2023-05-22T08:10:18.693Z,9.87
2023-05-22T08:12:46.539Z,9.57
2023-05-22T08:15:15.802Z,12.65
2023-05-22T08:17:45.945Z,9.98
2023-05-22T08:20:14.665Z,10.20
2023-05-22T08:22:46.504Z,10.10
2023-05-22T08:25:17.697Z,9.30
2023-05-22T08:27:48.897Z,9.77
2023-05-22T08:30:18.440Z,10.50
2023-05-22T08:32:48.485Z,10.80
2023-05-22T08:35:17.158Z,10.88
2023-05-22T08:37:46.241Z,9.90
2023-05-22T08:40:18.086Z,9.23
2023-05-22T08:42:46.267Z,9.93
2023-05-22T08:45:18.437Z,10.80
2023-05-22T08:47:53.858Z,9.30
2023-05-22T08:50:23.058Z,10.88
2023-05-22T08:52:54.074Z,9.55
2023-05-22T08:55:24.804Z,10.40
2023-05-22T08:57:55.377Z,10.63
2023-05-22T09:00:24.863Z,10.80
2023-05-22T09:02:56.194Z,9.77
2023-05-22T09:05:27.050Z,10.30
2023-05-22T09:07:58.396Z,9.25
2023-05-22T09:10:35.970Z,9.45
2023-05-22T09:13:08.876Z,9.98
2023-05-22T09:15:39.124Z,10.23
2023-05-22T09:18:07.981Z,9.98
2023-05-22T09:20:39.369Z,9.73
2023-05-22T09:23:17.720Z,9.98
2023-05-22T09:25:49.771Z,10.20
2023-05-22T09:28:20.612Z,10.50
2023-05-22T09:30:51.084Z,10.60
2023-05-22T09:33:19.304Z,10.45
2023-05-22T09:35:49.770Z,10.23
2023-05-22T09:38:19.188Z,10.30
2023-05-22T09:40:53.909Z,10.23
2023-05-22T09:43:23.797Z,9.95
2023-05-22T09:45:58.982Z,11.02
2023-05-22T09:48:27.881Z,10.50
2023-05-22T09:51:02.152Z,9.77
2023-05-22T09:53:35.028Z,10.10
2023-05-22T09:56:12.586Z,10.98
2023-05-22T09:58:47.133Z,10.98
2023-05-22T10:01:17.559Z,10.38
2023-05-22T10:03:53.244Z,10.00
2023-05-22T10:06:24.026Z,10.65
2023-05-22T10:08:58.224Z,10.02
2023-05-22T10:11:32.215Z,9.75
2023-05-22T10:14:01.849Z,11.35
2023-05-22T10:16:31.195Z,10.45
2023-05-22T10:19:04.300Z,9.75
2023-05-22T10:21:33.941Z,10.43
2023-05-22T10:24:06.552Z,10.25
2023-05-22T10:26:36.260Z,10.80
2023-05-22T10:29:12.951Z,11.13
2023-05-22T10:31:46.905Z,9.73
2023-05-22T10:34:32.696Z,9.98
2023-05-22T10:37:19.214Z,10.75
2023-05-22T10:40:07.283Z,10.32
2023-05-22T10:42:40.078Z,9.95
2023-05-22T10:45:09.500Z,9.05
2023-05-22T10:47:39.682Z,10.52
2023-05-22T10:50:12.810Z,10.35
2023-05-22T10:52:41.320Z,9.88
2023-05-22T10:55:12.318Z,10.13
2023-05-22T10:57:45.931Z,10.55
2023-05-22T11:00:20.037Z,10.48
2023-05-22T11:02:48.238Z,11.02
2023-05-22T11:05:38.903Z,10.63
2023-05-22T11:08:30.660Z,10.40
2023-05-22T11:11:01.918Z,10.60
2023-05-22T11:13:33.762Z,10.35
2023-05-22T11:16:06.805Z,10.80
2023-05-22T11:18:42.970Z,9.93
2023-05-22T11:21:16.304Z,10.63
2023-05-22T11:23:47.004Z,9.63
2023-05-22T11:26:28.007Z,9.52
2023-05-22T11:29:02.012Z,9.88
2023-05-22T11:31:36.259Z,9.77
2023-05-22T11:34:04.719Z,9.82
2023-05-22T11:36:33.883Z,9.10
2023-05-22T11:39:05.763Z,10.35
2023-05-22T11:41:34.880Z,9.75
2023-05-22T11:44:06.407Z,10.07
2023-05-22T11:46:40.424Z,10.10
2023-05-22T11:49:13.176Z,9.73
2023-05-22T11:51:45.746Z,9.63
2023-05-22T11:54:18.108Z,9.10
2023-05-22T11:56:49.316Z,10.10
2023-05-22T11:59:22.840Z,9.98
2023-05-22T12:01:53.210Z,9.63
2023-05-22T12:04:21.973Z,11.05
2023-05-22T12:06:50.289Z,9.57
2023-05-22T12:09:18.932Z,9.93
2023-05-22T12:11:49.069Z,10.50
2023-05-22T12:14:18.637Z,10.35
2023-05-22T12:16:46.436Z,10.32
2023-05-22T12:19:16.074Z,10.25
2023-05-22T12:21:46.320Z,10.05
2023-05-22T12:24:16.571Z,10.38
2023-05-22T12:26:51.385Z,10.77
2023-05-22T12:29:23.296Z,10.10
2023-05-22T12:31:52.574Z,10.82
2023-05-22T12:34:20.673Z,10.45
2023-05-22T12:36:49.587Z,10.13
2023-05-22T12:39:20.161Z,11.00
2023-05-22T12:41:48.326Z,11.52
2023-05-22T12:44:17.654Z,10.38
2023-05-22T12:46:47.799Z,10.40
2023-05-22T12:49:16.283Z,10.63
2023-05-22T12:51:45.420Z,11.88
2023-05-22T12:54:15.710Z,9.60
2023-05-22T12:56:45.479Z,10.50
2023-05-22T12:59:19.488Z,10.02
2023-05-22T13:01:51.714Z,10.02
2023-05-22T13:04:20.629Z,10.52
2023-05-22T13:06:48.556Z,9.82
2023-05-22T13:09:21.371Z,9.32
2023-05-22T13:11:50.521Z,10.40
2023-05-22T13:14:19.560Z,9.05
2023-05-22T13:16:47.822Z,9.25
2023-05-22T13:19:20.175Z,9.57
2023-05-22T13:21:48.825Z,10.18
2023-05-22T13:24:16.975Z,10.10
2023-05-22T13:26:44.836Z,9.95
2023-05-22T13:29:38.916Z,9.48
2023-05-22T13:32:10.454Z,9.95
2023-05-22T13:34:41.421Z,10.45
2023-05-22T13:37:10.963Z,9.95
2023-05-22T13:39:39.736Z,8.80
2023-05-22T13:42:08.313Z,8.93
2023-05-22T13:44:36.635Z,8.40
2023-05-22T13:47:06.150Z,8.75
2023-05-22T13:49:35.195Z,8.82
2023-05-22T13:52:07.451Z,8.27
2023-05-22T13:54:35.909Z,8.10
2023-05-22T13:57:10.424Z,8.05
2023-05-22T14:00:04.394Z,8.30
2023-05-22T14:02:32.426Z,8.55
2023-05-22T14:05:01.498Z,8.18
2023-05-22T14:07:31.219Z,8.10
2023-05-22T14:10:01.636Z,8.00
2023-05-22T14:12:37.196Z,8.15
2023-05-22T14:15:05.645Z,7.65
2023-05-22T14:17:35.078Z,7.80
2023-05-22T14:20:03.888Z,7.65
2023-05-22T14:22:47.897Z,7.78
2023-05-22T14:25:28.911Z,8.45
2023-05-22T14:27:58.684Z,8.45
2023-05-22T14:30:26.832Z,8.05
2023-05-22T14:32:56.412Z,8.00
2023-05-22T14:35:33.610Z,7.07
2023-05-22T14:38:04.910Z,7.50
2023-05-22T14:40:34.493Z,7.57
2023-05-22T14:43:04.861Z,6.60
2023-05-22T14:45:33.956Z,7.05
2023-05-22T14:48:03.717Z,7.20
2023-05-22T14:50:40.291Z,8.38
2023-05-22T14:53:16.258Z,8.25
2023-05-22T14:55:44.346Z,8.63
2023-05-22T14:58:13.170Z,8.07
2023-05-22T15:00:43.606Z,8.32
2023-05-22T15:03:13.579Z,8.35
2023-05-22T15:05:43.031Z,8.55
2023-05-22T15:08:14.184Z,8.52
2023-05-22T15:10:44.333Z,8.98
2023-05-22T15:13:23.614Z,8.65
2023-05-22T15:15:54.346Z,8.88
2023-05-22T15:18:25.307Z,8.40
2023-05-22T15:20:55.060Z,7.88
2023-05-22T15:23:26.592Z,7.28
2023-05-22T15:25:59.201Z,7.35
2023-05-22T15:28:27.952Z,7.47
2023-05-22T15:30:56.784Z,6.40
2023-05-22T15:33:30.062Z,7.50
2023-05-22T15:36:00.289Z,5.63
2023-05-22T15:38:31.153Z,5.28
2023-05-22T15:41:00.507Z,4.88
2023-05-22T15:43:30.919Z,4.70
2023-05-22T15:46:03.052Z,4.68
2023-05-22T15:48:32.417Z,4.70
2023-05-22T15:51:01.365Z,4.15
2023-05-22T15:53:32.422Z,4.45
2023-05-22T15:56:01.423Z,4.60
2023-05-22T15:58:30.435Z,4.07
2023-05-22T16:00:59.939Z,4.78
2023-05-22T16:03:29.524Z,5.05
2023-05-22T16:06:00.676Z,6.43
2023-05-22T16:08:32.184Z,7.13
2023-05-22T16:11:04.309Z,6.88
2023-05-22T16:13:34.788Z,6.97
2023-05-22T16:16:05.972Z,6.13
2023-05-22T16:18:40.679Z,7.20
2023-05-22T16:21:12.094Z,5.63
2023-05-22T16:23:43.536Z,5.40
2023-05-22T16:26:21.605Z,4.82
2023-05-22T16:28:52.054Z,5.30
2023-05-22T16:31:22.536Z,5.22
2023-05-22T16:33:53.299Z,5.50
2023-05-22T16:36:28.138Z,5.75
2023-05-22T16:38:57.249Z,5.40
2023-05-22T16:41:37.800Z,5.72
2023-05-22T16:44:09.341Z,5.43
2023-05-22T16:46:39.030Z,5.55
2023-05-22T16:49:08.465Z,5.75
2023-05-22T16:51:36.994Z,6.18
2023-05-22T16:54:07.628Z,6.03
2023-05-22T16:56:38.004Z,5.68
2023-05-22T16:59:12.383Z,5.93
2023-05-22T17:01:41.003Z,6.43
2023-05-22T17:04:14.789Z,6.80
2023-05-22T17:06:43.714Z,7.07
2023-05-22T17:09:14.653Z,7.00
2023-05-22T17:11:44.461Z,6.97
2023-05-22T17:14:14.680Z,7.55
2023-05-22T17:16:42.796Z,7.50
2023-05-22T17:19:13.536Z,7.40
2023-05-22T17:21:47.079Z,7.60
2023-05-22T17:24:17.333Z,7.17
2023-05-22T17:26:48.068Z,7.50
2023-05-22T17:29:16.745Z,7.03
2023-05-22T17:31:56.590Z,7.93
2023-05-22T17:34:25.790Z,7.28
2023-05-22T17:36:58.231Z,7.82
2023-05-22T17:39:36.946Z,8.38
2023-05-22T17:42:15.789Z,8.83
2023-05-22T17:44:47.830Z,9.97
2023-05-22T17:47:22.989Z,10.60
2023-05-22T17:49:54.227Z,11.07
2023-05-22T17:52:23.616Z,10.90
2023-05-22T17:54:53.314Z,12.03
2023-05-22T17:57:26.378Z,11.23
2023-05-22T17:59:56.336Z,11.70
2023-05-22T18:02:28.381Z,11.87
2023-05-22T18:04:59.768Z,10.10
2023-05-22T18:07:27.895Z,11.00
2023-05-22T18:09:58.472Z,10.43
2023-05-22T18:12:31.806Z,10.60
2023-05-22T18:15:00.610Z,10.23
2023-05-22T18:17:37.028Z,10.40
2023-05-22T18:20:09.242Z,10.93
2023-05-22T18:22:39.009Z,10.30
2023-05-22T18:25:07.977Z,10.40
2023-05-22T18:27:51.756Z,9.83
2023-05-22T18:30:23.274Z,11.27
2023-05-22T18:32:55.551Z,10.87
2023-05-22T18:35:25.785Z,11.13
2023-05-22T18:37:55.156Z,10.53
2023-05-22T18:40:24.445Z,10.33
2023-05-22T18:42:59.072Z,9.90
2023-05-22T18:45:29.033Z,10.73
2023-05-22T18:48:04.850Z,12.17
2023-05-22T18:50:40.799Z,11.87
2023-05-22T18:53:10.202Z,12.00
2023-05-22T18:55:38.659Z,10.97
2023-05-22T18:58:08.115Z,12.40
2023-05-22T19:00:39.947Z,12.80
2023-05-22T19:03:12.529Z,11.07
2023-05-22T19:05:45.714Z,10.63
2023-05-22T19:08:13.999Z,11.10
2023-05-22T19:10:46.049Z,11.77
2023-05-22T19:13:16.500Z,12.30
2023-05-22T19:15:47.122Z,12.47
2023-05-22T19:18:15.107Z,11.17
2023-05-22T19:20:47.623Z,12.40
2023-05-22T19:23:18.276Z,11.43
2023-05-22T19:25:50.352Z,11.93
2023-05-22T19:28:27.699Z,13.20
2023-05-22T19:31:05.678Z,13.60
2023-05-22T19:33:43.938Z,13.37
2023-05-22T19:36:12.995Z,13.93
2023-05-22T19:38:47.349Z,15.00
2023-05-22T19:41:17.015Z,13.57
2023-05-22T19:43:47.584Z,13.00
2023-05-22T19:46:16.992Z,9.13
2023-05-22T19:48:47.193Z,8.33
2023-05-22T19:51:21.154Z,7.30
2023-05-22T19:53:49.474Z,7.50
2023-05-22T19:56:20.333Z,5.83
2023-05-22T19:58:53.403Z,6.37
2023-05-22T20:01:24.311Z,6.07
2023-05-22T20:03:56.323Z,5.30
2023-05-22T20:06:24.625Z,5.80
2023-05-22T20:08:53.213Z,5.87
2023-05-22T20:11:22.248Z,6.10
2023-05-22T20:13:54.513Z,6.63
2023-05-22T20:16:26.873Z,6.20
2023-05-22T20:19:00.696Z,6.13
2023-05-22T20:21:28.626Z,7.10
2023-05-22T20:24:01.079Z,7.37
2023-05-22T20:26:31.588Z,8.87
2023-05-22T20:29:01.415Z,8.60
2023-05-22T20:31:29.427Z,9.13
2023-05-22T20:34:05.472Z,10.50
2023-05-22T20:36:40.814Z,10.10
2023-05-22T20:39:10.748Z,11.47
2023-05-22T20:41:43.224Z,12.07
2023-05-22T20:44:34.236Z,14.20
2023-05-22T20:47:03.252Z,16.47
2023-05-22T20:49:36.896Z,17.97
2023-05-22T20:52:06.193Z,18.90
2023-05-22T20:54:37.347Z,19.70
2023-05-22T20:57:08.900Z,20.03
2023-05-22T20:59:38.204Z,20.13
2023-05-22T21:02:07.285Z,19.73
2023-05-22T21:04:41.188Z,20.00
2023-05-22T21:07:11.415Z,21.20
2023-05-22T21:09:42.025Z,21.87
2023-05-22T21:12:13.690Z,23.37
2023-05-22T21:14:47.938Z,25.10
2023-05-22T21:17:20.218Z,26.37
2023-05-22T21:19:56.215Z,29.17
2023-05-22T21:22:24.545Z,30.47
2023-05-22T21:24:53.319Z,31.50
2023-05-22T21:27:23.535Z,34.60
2023-05-22T21:29:55.176Z,34.30
2023-05-22T21:32:28.140Z,34.97
2023-05-22T21:34:59.665Z,36.67
2023-05-22T21:37:28.052Z,38.60
2023-05-22T21:39:56.683Z,39.00
2023-05-22T21:42:26.427Z,40.37
2023-05-22T21:44:56.630Z,40.40
2023-05-22T21:47:25.281Z,41.17
2023-05-22T21:49:53.195Z,41.57
2023-05-22T21:52:22.500Z,47.20
2023-05-22T21:54:50.563Z,41.43
2023-05-22T21:57:19.312Z,43.03
2023-05-22T21:59:53.567Z,42.13
2023-05-22T22:02:25.452Z,44.27
2023-05-22T22:04:56.067Z,44.70
2023-05-22T22:07:25.987Z,46.37
2023-05-22T22:09:53.734Z,45.73
2023-05-22T22:12:24.820Z,44.80
2023-05-22T22:14:55.746Z,46.80
2023-05-22T22:17:33.326Z,45.30
2023-05-22T22:20:01.264Z,45.23
2023-05-22T22:22:30.777Z,43.90
2023-05-22T22:25:00.968Z,46.37
2023-05-22T22:27:29.252Z,44.47
2023-05-22T22:29:57.297Z,44.87
2023-05-22T22:32:27.446Z,45.30
2023-05-22T22:34:55.283Z,45.77
2023-05-22T22:37:24.859Z,41.90
2023-05-22T22:39:53.266Z,43.33
2023-05-22T22:42:22.049Z,42.23
2023-05-22T22:44:50.289Z,41.97
2023-05-22T22:47:18.745Z,42.47
2023-05-22T22:49:53.167Z,37.77
2023-05-22T22:52:21.462Z,37.63
2023-05-22T22:54:50.184Z,38.47
2023-05-22T22:57:20.053Z,38.43
2023-05-22T22:59:48.534Z,35.93
2023-05-22T23:02:16.914Z,34.83
2023-05-22T23:04:45.990Z,37.63
2023-05-22T23:07:15.366Z,35.43
2023-05-22T23:09:43.227Z,36.63
2023-05-22T23:12:12.668Z,36.10
2023-05-22T23:14:41.137Z,36.40
2023-05-22T23:17:10.566Z,34.67
2023-05-22T23:19:46.346Z,34.83
2023-05-22T23:22:17.811Z,35.87
2023-05-22T23:24:46.344Z,35.03
2023-05-22T23:27:15.342Z,35.17
2023-05-22T23:29:46.722Z,35.07
2023-05-22T23:32:15.562Z,33.23
2023-05-22T23:34:43.930Z,34.07
2023-05-22T23:37:12.994Z,34.10
2023-05-22T23:39:42.351Z,34.07
2023-05-22T23:42:12.033Z,35.57
2023-05-22T23:44:41.713Z,35.27
2023-05-22T23:47:10.419Z,33.23
2023-05-22T23:49:38.575Z,33.93
2023-05-22T23:52:09.081Z,34.33
2023-05-22T23:54:37.026Z,33.60
2023-05-22T23:57:07.518Z,34.33
2023-05-22T23:59:41.010Z,34.27
